Buoy 52912

sailwx.info

Track history (hours):
 
Tides and Currents Weather Stations Pressure Air Temp Water Temp Dewpoint Dewpoint Depression Visibility Wind Speed Wind Dir Waves Ship Positions

Drifting buoy 52912

Last reported at 2015-Jan-31 08:00 UTC. Time now 2015-Jan-31 08:38 UTC.
Position N 13°21' E 148°48'.

Water temperature 28.3 ° C

Date/timePositionNaut miles runAvg speedWind from/ knotsBaromVisibWave heightAir tempDewpointWater temp
2015-Jan-31 08:00N 13°21' E 148°48'0 0.0 28.3
2015-Jan-31 07:00N 13°21' E 148°48'0 0.2 28.3
2015-Jan-31 06:00N 13°21' E 148°48'1 0.3 28.3
2015-Jan-31 04:00N 13°21' E 148°48'0 0.4 28.3
2015-Jan-31 03:00N 13°21' E 148°49'0 0.0 28.3
2015-Jan-31 02:00N 13°21' E 148°49'2 1.6 28.3
2015-Jan-31 01:00N 13°22' E 148°50'1 0.8 28.3
2015-Jan-31 00:00N 13°22' E 148°51'1 1.0 28.2
2015-Jan-30 23:00N 13°23' E 148°52'0 0.1 28.2
2015-Jan-30 20:00N 13°22' E 148°52'0 0.4 28.2
2015-Jan-30 19:00N 13°23' E 148°52'1 0.3 28.2
2015-Jan-30 15:00N 13°24' E 148°53'2 0.5 28.2
2015-Jan-30 11:00N 13°24' E 148°55'3 0.9 28.3
2015-Jan-30 08:00N 13°22' E 148°57'0 0.0 28.3
2015-Jan-30 07:00N 13°22' E 148°57'1 0.9 28.3
2015-Jan-30 06:00N 13°22' E 148°58'2 1.0 28.3
2015-Jan-30 04:00N 13°22' E 149°00'2 1.8 28.3
2015-Jan-30 03:00N 13°22' E 149°02'4 1.3 28.3
2015-Jan-30 00:00N 13°22' E 149°06'1 1.1 28.3
2015-Jan-29 23:00N 13°21' E 149°07'0 0.1 28.3
2015-Jan-29 20:00N 13°21' E 149°07'1 0.5 28.3
2015-Jan-29 18:00N 13°21' E 149°08'2 0.8 28.3
2015-Jan-29 15:00N 13°20' E 149°10'0 0.1 28.3
2015-Jan-29 11:00N 13°20' E 149°10'0 0.4 28.4
2015-Jan-29 10:00N 13°19' E 149°10'0 0.4 28.5
2015-Jan-29 09:00N 13°19' E 149°10'2 1.5 28.5
2015-Jan-29 08:00N 13°18' E 149°11'1 0.3 28.6
2015-Jan-29 06:00N 13°18' E 149°11'0 0.3 28.8
2015-Jan-29 05:00N 13°18' E 149°11'0 0.0 28.8
2015-Jan-29 04:00N 13°18' E 149°11'0 0.2 28.8
2015-Jan-29 03:00N 13°18' E 149°11'0 0.0 28.8
2015-Jan-29 02:00N 13°18' E 149°11'1 0.5 28.6
2015-Jan-29 00:00N 13°18' E 149°12'0 0.0 28.3
2015-Jan-28 20:00N 13°17' E 149°12'1 1.3 28.2
2015-Jan-28 19:00N 13°18' E 149°10'2 1.7 28.2
2015-Jan-28 18:00N 13°17' E 149°12'2 0.8 28.2
2015-Jan-28 16:00N 13°18' E 149°10'1 0.9 28.2
2015-Jan-28 15:00N 13°17' E 149°10'0 0.1 28.2
2015-Jan-28 12:00N 13°17' E 149°10'0 0.0 28.3
2015-Jan-28 07:00N 13°17' E 149°10'0 0.0 28.4
2015-Jan-28 06:00N 13°17' E 149°10'0 0.0 28.4
2015-Jan-28 05:00N 13°17' E 149°10'0 0.2 28.4
2015-Jan-28 03:00N 13°17' E 149°10'0 0.0 28.3
2015-Jan-28 02:00N 13°17' E 149°10'3 1.3 28.3
2015-Jan-28 00:00N 13°20' E 149°11'0 0.0 28.2
2015-Jan-27 23:00N 13°20' E 149°11'2 0.8 28.2
2015-Jan-27 21:00N 13°21' E 149°11'0 0.2 28.2
2015-Jan-27 19:00N 13°21' E 149°11'1 0.8 28.2
2015-Jan-27 18:00N 13°22' E 149°11'0 0.0 28.2
2015-Jan-27 17:00N 13°22' E 149°11'4 3.7 28.2
2015-Jan-27 16:00N 13°26' E 149°11'0 0.0 28.2
2015-Jan-27 15:00N 13°26' E 149°11'0 0.0 28.2
2015-Jan-27 12:00N 13°26' E 149°11'3 0.7 28.3
2015-Jan-27 08:00N 13°27' E 149°13'1 1.3 28.3
2015-Jan-27 07:00N 13°28' E 149°12'1 0.5 28.3
2015-Jan-27 05:00N 13°29' E 149°12'3 0.5 28.3
2015-Jan-27 00:00N 13°30' E 149°14'3 0.8 28.2
2015-Jan-26 20:00N 13°31' E 149°17'0 0.3 28.2
2015-Jan-26 19:00N 13°31' E 149°17'2 0.7 28.2
2015-Jan-26 16:00N 13°34' E 149°18'0 0.0 28.2
2015-Jan-26 15:00N 13°34' E 149°18'4 1.2 28.2
2015-Jan-26 12:00N 13°34' E 149°21'0 0.0 28.3
2015-Jan-26 11:00N 13°34' E 149°21'1 0.3 28.3
2015-Jan-26 09:00N 13°34' E 149°22'2 2.1 28.3
2015-Jan-26 08:00N 13°34' E 149°24'0 0.2 28.3
2015-Jan-26 06:00N 13°34' E 149°25'3 0.8 28.3
2015-Jan-26 03:00N 13°34' E 149°27'5 1.6 28.3
2015-Jan-26 00:00N 13°33' E 149°32'2 2.2 28.3
2015-Jan-25 23:00N 13°32' E 149°34'1 0.3 28.3
2015-Jan-25 20:00N 13°32' E 149°35'1 1.1 28.2
2015-Jan-25 19:00N 13°32' E 149°36'1 0.6 28.2
2015-Jan-25 18:00N 13°32' E 149°36'1 0.8 28.2
2015-Jan-25 17:00N 13°33' E 149°37'0 0.2 28.2
2015-Jan-25 16:00N 13°33' E 149°37'0 0.0 28.3
2015-Jan-25 15:00N 13°33' E 149°37'4 1.5 28.3
2015-Jan-25 12:00N 13°30' E 149°41'1 0.6 28.3
2015-Jan-25 11:00N 13°30' E 149°41'0 0.0 28.3
2015-Jan-25 10:00N 13°30' E 149°41'2 1.0 28.3
2015-Jan-25 08:00N 13°30' E 149°43'0 0.2 28.3
2015-Jan-25 07:00N 13°30' E 149°43'1 0.5 28.3
2015-Jan-25 06:00N 13°30' E 149°43'1 0.2 28.3
2015-Jan-25 03:00N 13°30' E 149°44'2 0.6 28.3
2015-Jan-25 00:00N 13°28' E 149°45'2 2.0 28.2
2015-Jan-24 23:00N 13°27' E 149°46'0 0.0 28.2
2015-Jan-24 21:00N 13°27' E 149°46'0 0.0 28.2
2015-Jan-24 20:00N 13°27' E 149°46'0 0.2 28.2
2015-Jan-24 18:00N 13°26' E 149°45'1 0.8 28.2
2015-Jan-24 17:00N 13°26' E 149°45'3 2.7 28.2
2015-Jan-24 16:00N 13°24' E 149°47'0 0.0 28.2
2015-Jan-24 15:00N 13°24' E 149°47'0 0.0 28.2
2015-Jan-24 14:00N 13°24' E 149°47'3 0.7 28.3
2015-Jan-24 10:00N 13°22' E 149°49'1 0.8 28.3
2015-Jan-24 09:00N 13°22' E 149°50'1 1.2 28.3
2015-Jan-24 08:00N 13°22' E 149°51'0 0.0 28.3
2015-Jan-24 07:00N 13°22' E 149°51'0 0.1 28.3
2015-Jan-24 06:00N 13°22' E 149°51'0 0.0 28.3
2015-Jan-24 05:00N 13°22' E 149°51'1 1.1 28.3
2015-Jan-24 04:00N 13°22' E 149°52'0 0.0 28.3
2015-Jan-24 03:00N 13°22' E 149°52'2 0.8 28.3
2015-Jan-24 00:00N 13°22' E 149°55'2 2.2 28.3
2015-Jan-23 23:00N 13°22' E 149°57'0 0.0 28.3
2015-Jan-23 20:00N 13°22' E 149°57'0 0.4 28.3
2015-Jan-23 19:00N 13°22' E 149°57'0 0.0 28.2
2015-Jan-23 18:00N 13°22' E 149°57'1 0.6 28.2
2015-Jan-23 17:00N 13°22' E 149°57'1 0.9 28.3
2015-Jan-23 16:00N 13°21' E 149°58'0 0.0 28.3
2015-Jan-23 15:00N 13°21' E 149°58'0 0.0 28.4
2015-Jan-23 14:00N 13°21' E 149°58'1 0.6 28.4
2015-Jan-23 12:00N 13°20' E 149°59'1 0.9 28.4
2015-Jan-23 11:00N 13°20' E 150°00'1 0.7 28.4
2015-Jan-23 09:00N 13°20' E 149°59'2 0.9 28.4
2015-Jan-23 07:00N 13°19' E 149°58'1 0.9 28.5
2015-Jan-23 06:00N 13°18' E 149°57'1 1.3 28.5
2015-Jan-23 05:00N 13°17' E 149°57'0 0.0 28.5
2015-Jan-23 04:00N 13°17' E 149°57'0 0.0 28.4
2015-Jan-23 03:00N 13°17' E 149°57'2 1.7 28.4
2015-Jan-23 02:00N 13°16' E 149°58'0 0.1 28.3
2015-Jan-22 23:00N 13°16' E 149°58'0 0.0 28.2
2015-Jan-22 20:00N 13°16' E 149°57'1 0.4 28.2
2015-Jan-22 17:00N 13°15' E 149°57'1 1.1 28.3
2015-Jan-22 16:00N 13°14' E 149°58'0 0.0 28.3
2015-Jan-22 15:00N 13°14' E 149°58'0 0.0 28.3
2015-Jan-22 14:00N 13°14' E 149°58'3 0.9 28.3
2015-Jan-22 11:00N 13°15' E 150°01'0 0.1 28.3
2015-Jan-22 07:00N 13°15' E 150°01'1 0.8 28.4
2015-Jan-22 06:00N 13°15' E 150°00'1 0.3 28.4
2015-Jan-22 04:00N 13°15' E 150°01'1 0.8 28.4
2015-Jan-22 03:00N 13°14' E 150°01'0 0.0 28.4
2015-Jan-22 02:00N 13°14' E 150°01'2 0.9 28.3
2015-Jan-22 00:00N 13°15' E 150°03'0 0.4 28.4
2015-Jan-21 23:00N 13°15' E 150°02'1 0.5 28.3
2015-Jan-21 21:00N 13°15' E 150°03'1 0.4 28.3
2015-Jan-21 19:00N 13°14' E 150°03'1 0.8 28.3
2015-Jan-21 18:00N 13°14' E 150°03'1 0.7 28.4
2015-Jan-21 17:00N 13°14' E 150°03'1 0.3 28.4
2015-Jan-21 15:00N 13°13' E 150°03'2 0.5 28.4
2015-Jan-21 11:00N 13°13' E 150°05'   28.5
Track history (hours):
 
Tides and Currents Weather Stations Pressure Air Temp Water Temp Dewpoint Dewpoint Depression Visibility Wind Speed Wind Dir Waves Ship Positions

Drifting buoy 52912

Last reported at 2015-Jan-31 08:00 UTC. Time now 2015-Jan-31 08:38 UTC.
Position N 13°21' E 148°48'.

Water temperature 28.3 ° C

Date/timePositionNaut miles runAvg speedWind from/ knotsBaromVisibWave heightAir tempDewpointWater temp
2015-Jan-31 08:00N 13°21' E 148°48'0 0.0 28.3
2015-Jan-31 07:00N 13°21' E 148°48'0 0.2 28.3
2015-Jan-31 06:00N 13°21' E 148°48'1 0.3 28.3
2015-Jan-31 04:00N 13°21' E 148°48'0 0.4 28.3
2015-Jan-31 03:00N 13°21' E 148°49'0 0.0 28.3
2015-Jan-31 02:00N 13°21' E 148°49'2 1.6 28.3
2015-Jan-31 01:00N 13°22' E 148°50'1 0.8 28.3
2015-Jan-31 00:00N 13°22' E 148°51'1 1.0 28.2
2015-Jan-30 23:00N 13°23' E 148°52'0 0.1 28.2
2015-Jan-30 20:00N 13°22' E 148°52'0 0.4 28.2
2015-Jan-30 19:00N 13°23' E 148°52'1 0.3 28.2
2015-Jan-30 15:00N 13°24' E 148°53'2 0.5 28.2
2015-Jan-30 11:00N 13°24' E 148°55'3 0.9 28.3
2015-Jan-30 08:00N 13°22' E 148°57'0 0.0 28.3
2015-Jan-30 07:00N 13°22' E 148°57'1 0.9 28.3
2015-Jan-30 06:00N 13°22' E 148°58'2 1.0 28.3
2015-Jan-30 04:00N 13°22' E 149°00'2 1.8 28.3
2015-Jan-30 03:00N 13°22' E 149°02'4 1.3 28.3
2015-Jan-30 00:00N 13°22' E 149°06'1 1.1 28.3
2015-Jan-29 23:00N 13°21' E 149°07'0 0.1 28.3
2015-Jan-29 20:00N 13°21' E 149°07'1 0.5 28.3
2015-Jan-29 18:00N 13°21' E 149°08'2 0.8 28.3
2015-Jan-29 15:00N 13°20' E 149°10'0 0.1 28.3
2015-Jan-29 11:00N 13°20' E 149°10'0 0.4 28.4
2015-Jan-29 10:00N 13°19' E 149°10'0 0.4 28.5
2015-Jan-29 09:00N 13°19' E 149°10'2 1.5 28.5
2015-Jan-29 08:00N 13°18' E 149°11'1 0.3 28.6
2015-Jan-29 06:00N 13°18' E 149°11'0 0.3 28.8
2015-Jan-29 05:00N 13°18' E 149°11'0 0.0 28.8
2015-Jan-29 04:00N 13°18' E 149°11'0 0.2 28.8
2015-Jan-29 03:00N 13°18' E 149°11'0 0.0 28.8
2015-Jan-29 02:00N 13°18' E 149°11'1 0.5 28.6
2015-Jan-29 00:00N 13°18' E 149°12'0 0.0 28.3
2015-Jan-28 20:00N 13°17' E 149°12'1 1.3 28.2
2015-Jan-28 19:00N 13°18' E 149°10'2 1.7 28.2
2015-Jan-28 18:00N 13°17' E 149°12'2 0.8 28.2
2015-Jan-28 16:00N 13°18' E 149°10'1 0.9 28.2
2015-Jan-28 15:00N 13°17' E 149°10'0 0.1 28.2
2015-Jan-28 12:00N 13°17' E 149°10'0 0.0 28.3
2015-Jan-28 07:00N 13°17' E 149°10'0 0.0 28.4
2015-Jan-28 06:00N 13°17' E 149°10'0 0.0 28.4
2015-Jan-28 05:00N 13°17' E 149°10'0 0.2 28.4
2015-Jan-28 03:00N 13°17' E 149°10'0 0.0 28.3
2015-Jan-28 02:00N 13°17' E 149°10'3 1.3 28.3
2015-Jan-28 00:00N 13°20' E 149°11'0 0.0 28.2
2015-Jan-27 23:00N 13°20' E 149°11'2 0.8 28.2
2015-Jan-27 21:00N 13°21' E 149°11'0 0.2 28.2
2015-Jan-27 19:00N 13°21' E 149°11'1 0.8 28.2
2015-Jan-27 18:00N 13°22' E 149°11'0 0.0 28.2
2015-Jan-27 17:00N 13°22' E 149°11'4 3.7 28.2
2015-Jan-27 16:00N 13°26' E 149°11'0 0.0 28.2
2015-Jan-27 15:00N 13°26' E 149°11'0 0.0 28.2
2015-Jan-27 12:00N 13°26' E 149°11'3 0.7 28.3
2015-Jan-27 08:00N 13°27' E 149°13'1 1.3 28.3
2015-Jan-27 07:00N 13°28' E 149°12'1 0.5 28.3
2015-Jan-27 05:00N 13°29' E 149°12'3 0.5 28.3
2015-Jan-27 00:00N 13°30' E 149°14'3 0.8 28.2
2015-Jan-26 20:00N 13°31' E 149°17'0 0.3 28.2
2015-Jan-26 19:00N 13°31' E 149°17'2 0.7 28.2
2015-Jan-26 16:00N 13°34' E 149°18'0 0.0 28.2
2015-Jan-26 15:00N 13°34' E 149°18'4 1.2 28.2
2015-Jan-26 12:00N 13°34' E 149°21'0 0.0 28.3
2015-Jan-26 11:00N 13°34' E 149°21'1 0.3 28.3
2015-Jan-26 09:00N 13°34' E 149°22'2 2.1 28.3
2015-Jan-26 08:00N 13°34' E 149°24'0 0.2 28.3
2015-Jan-26 06:00N 13°34' E 149°25'3 0.8 28.3
2015-Jan-26 03:00N 13°34' E 149°27'5 1.6 28.3
2015-Jan-26 00:00N 13°33' E 149°32'2 2.2 28.3
2015-Jan-25 23:00N 13°32' E 149°34'1 0.3 28.3
2015-Jan-25 20:00N 13°32' E 149°35'1 1.1 28.2
2015-Jan-25 19:00N 13°32' E 149°36'1 0.6 28.2
2015-Jan-25 18:00N 13°32' E 149°36'1 0.8 28.2
2015-Jan-25 17:00N 13°33' E 149°37'0 0.2 28.2
2015-Jan-25 16:00N 13°33' E 149°37'0 0.0 28.3
2015-Jan-25 15:00N 13°33' E 149°37'4 1.5 28.3
2015-Jan-25 12:00N 13°30' E 149°41'1 0.6 28.3
2015-Jan-25 11:00N 13°30' E 149°41'0 0.0 28.3
2015-Jan-25 10:00N 13°30' E 149°41'2 1.0 28.3
2015-Jan-25 08:00N 13°30' E 149°43'0 0.2 28.3
2015-Jan-25 07:00N 13°30' E 149°43'1 0.5 28.3
2015-Jan-25 06:00N 13°30' E 149°43'1 0.2 28.3
2015-Jan-25 03:00N 13°30' E 149°44'2 0.6 28.3
2015-Jan-25 00:00N 13°28' E 149°45'2 2.0 28.2
2015-Jan-24 23:00N 13°27' E 149°46'0 0.0 28.2
2015-Jan-24 21:00N 13°27' E 149°46'0 0.0 28.2
2015-Jan-24 20:00N 13°27' E 149°46'0 0.2 28.2
2015-Jan-24 18:00N 13°26' E 149°45'1 0.8 28.2
2015-Jan-24 17:00N 13°26' E 149°45'3 2.7 28.2
2015-Jan-24 16:00N 13°24' E 149°47'0 0.0 28.2
2015-Jan-24 15:00N 13°24' E 149°47'0 0.0 28.2
2015-Jan-24 14:00N 13°24' E 149°47'3 0.7 28.3
2015-Jan-24 10:00N 13°22' E 149°49'1 0.8 28.3
2015-Jan-24 09:00N 13°22' E 149°50'1 1.2 28.3
2015-Jan-24 08:00N 13°22' E 149°51'0 0.0 28.3
2015-Jan-24 07:00N 13°22' E 149°51'0 0.1 28.3
2015-Jan-24 06:00N 13°22' E 149°51'0 0.0 28.3
2015-Jan-24 05:00N 13°22' E 149°51'1 1.1 28.3
2015-Jan-24 04:00N 13°22' E 149°52'0 0.0 28.3
2015-Jan-24 03:00N 13°22' E 149°52'2 0.8 28.3
2015-Jan-24 00:00N 13°22' E 149°55'2 2.2 28.3
2015-Jan-23 23:00N 13°22' E 149°57'0 0.0 28.3
2015-Jan-23 20:00N 13°22' E 149°57'0 0.4 28.3
2015-Jan-23 19:00N 13°22' E 149°57'0 0.0 28.2
2015-Jan-23 18:00N 13°22' E 149°57'1 0.6 28.2
2015-Jan-23 17:00N 13°22' E 149°57'1 0.9 28.3
2015-Jan-23 16:00N 13°21' E 149°58'0 0.0 28.3
2015-Jan-23 15:00N 13°21' E 149°58'0 0.0 28.4
2015-Jan-23 14:00N 13°21' E 149°58'1 0.6 28.4
2015-Jan-23 12:00N 13°20' E 149°59'1 0.9 28.4
2015-Jan-23 11:00N 13°20' E 150°00'1 0.7 28.4
2015-Jan-23 09:00N 13°20' E 149°59'2 0.9 28.4
2015-Jan-23 07:00N 13°19' E 149°58'1 0.9 28.5
2015-Jan-23 06:00N 13°18' E 149°57'1 1.3 28.5
2015-Jan-23 05:00N 13°17' E 149°57'0 0.0 28.5
2015-Jan-23 04:00N 13°17' E 149°57'0 0.0 28.4
2015-Jan-23 03:00N 13°17' E 149°57'2 1.7 28.4
2015-Jan-23 02:00N 13°16' E 149°58'0 0.1 28.3
2015-Jan-22 23:00N 13°16' E 149°58'0 0.0 28.2
2015-Jan-22 20:00N 13°16' E 149°57'1 0.4 28.2
2015-Jan-22 17:00N 13°15' E 149°57'1 1.1 28.3
2015-Jan-22 16:00N 13°14' E 149°58'0 0.0 28.3
2015-Jan-22 15:00N 13°14' E 149°58'0 0.0 28.3
2015-Jan-22 14:00N 13°14' E 149°58'3 0.9 28.3
2015-Jan-22 11:00N 13°15' E 150°01'0 0.1 28.3
2015-Jan-22 07:00N 13°15' E 150°01'1 0.8 28.4
2015-Jan-22 06:00N 13°15' E 150°00'1 0.3 28.4
2015-Jan-22 04:00N 13°15' E 150°01'1 0.8 28.4
2015-Jan-22 03:00N 13°14' E 150°01'0 0.0 28.4
2015-Jan-22 02:00N 13°14' E 150°01'2 0.9 28.3
2015-Jan-22 00:00N 13°15' E 150°03'0 0.4 28.4
2015-Jan-21 23:00N 13°15' E 150°02'1 0.5 28.3
2015-Jan-21 21:00N 13°15' E 150°03'1 0.4 28.3
2015-Jan-21 19:00N 13°14' E 150°03'1 0.8 28.3
2015-Jan-21 18:00N 13°14' E 150°03'1 0.7 28.4
2015-Jan-21 17:00N 13°14' E 150°03'1 0.3 28.4
2015-Jan-21 15:00N 13°13' E 150°03'2 0.5 28.4
2015-Jan-21 11:00N 13°13' E 150°05'   28.5

Dump ship's entire track history